Time;durP1;ratioP1;P1;durP2;ratioP2;P2;SDS_P1;SDS_P2;PMS_P1;PMS_P2;Temp;Humidity;BMP_temperature;BMP_pressure;BME280_temperature;BME280_humidity;BME280_pressure;Samples;Min_cycle;Max_cycle;Signal;HPM_P1;HPM_P2
2021/01/18 00:01:37;;;;;;;6.22;1.50;;;;;;;;;;5005497;28;20045;-45
2021/01/18 00:04:04;;;;;;;10.50;1.80;;;;;;;;;;5004209;28;20076;-44
2021/01/18 00:06:31;;;;;;;7.85;1.55;;;;;;;;;;5013008;28;20038;-43
2021/01/18 00:08:58;;;;;;;7.20;2.10;;;;;;;;;;5003625;28;20030;-46
2021/01/18 00:11:25;;;;;;;12.57;2.00;;;;;;;;;;5008060;28;20030;-45
2021/01/18 00:13:54;;;;;;;6.78;1.50;;;;;;;;;;5004054;28;20051;-45
2021/01/18 00:16:22;;;;;;;9.25;1.80;;;;;;;;;;5012835;28;20033;-44
2021/01/18 00:18:49;;;;;;;10.25;1.90;;;;;;;;;;5010030;28;20022;-44
2021/01/18 00:21:16;;;;;;;8.80;1.67;;;;;;;;;;5002385;28;20026;-46
2021/01/18 00:23:43;;;;;;;5.13;1.40;;;;;;;;;;5006179;28;20030;-46
2021/01/18 00:26:11;;;;;;;13.23;2.00;;;;;;;;;;5007052;28;20029;-49
2021/01/18 00:28:39;;;;;;;11.25;1.55;;;;;;;;;;5007115;28;20108;-49
2021/01/18 00:31:06;;;;;;;4.40;1.70;;;;;;;;;;5010081;28;20021;-47
2021/01/18 00:33:34;;;;;;;7.05;1.90;;;;;;;;;;5003977;28;20101;-47
2021/01/18 00:36:01;;;;;;;9.15;1.73;;;;;;;;;;5001729;28;20022;-47
2021/01/18 00:38:28;;;;;;;5.18;1.88;;;;;;;;;;5016152;28;20027;-46
2021/01/18 00:40:55;;;;;;;6.80;1.42;;;;;;;;;;4996761;28;20091;-46
2021/01/18 00:43:22;;;;;;;6.43;1.70;;;;;;;;;;5001642;28;20123;-44
2021/01/18 00:45:49;;;;;;;6.47;1.50;;;;;;;;;;4995541;28;20026;-46
2021/01/18 00:48:16;;;;;;;10.77;1.98;;;;;;;;;;5004442;28;20034;-45
2021/01/18 00:50:43;;;;;;;5.60;1.45;;;;;;;;;;5009176;28;20029;-46
2021/01/18 00:53:10;;;;;;;8.65;1.73;;;;;;;;;;5006177;28;20030;-46
2021/01/18 00:55:37;;;;;;;6.10;1.00;;;;;;;;;;5000109;28;20022;-44
2021/01/18 00:58:04;;;;;;;6.93;1.10;;;;;;;;;;4997839;28;20506;-44
2021/01/18 01:00:32;;;;;;;4.28;1.10;;;;;;;;;;5001527;28;20101;-44
2021/01/18 01:02:59;;;;;;;3.75;1.00;;;;;;;;;;5003563;28;20026;-43
2021/01/18 01:05:27;;;;;;;5.63;1.10;;;;;;;;;;4997467;28;20028;-44
2021/01/18 01:07:55;;;;;;;6.22;1.40;;;;;;;;;;5007935;28;20091;-44
2021/01/18 01:10:23;;;;;;;3.78;1.17;;;;;;;;;;4998542;28;20027;-44
2021/01/18 01:12:57;;;;;;;7.30;1.85;;;;;;;;;;4995398;28;20074;-44
2021/01/18 01:15:24;;;;;;;7.35;1.45;;;;;;;;;;5015661;28;20124;-48
2021/01/18 01:17:51;;;;;;;8.18;1.35;;;;;;;;;;5009205;28;20101;-45
2021/01/18 01:20:19;;;;;;;7.15;1.23;;;;;;;;;;4999252;28;20030;-46
2021/01/18 01:22:47;;;;;;;5.75;1.00;;;;;;;;;;5006332;28;20113;-42
2021/01/18 01:25:15;;;;;;;5.53;1.50;;;;;;;;;;5004534;28;20018;-43
2021/01/18 01:27:43;;;;;;;4.47;1.00;;;;;;;;;;5008546;28;20029;-44
2021/01/18 01:30:11;;;;;;;4.32;0.95;;;;;;;;;;5006121;28;20018;-43
2021/01/18 01:32:39;;;;;;;7.10;1.30;;;;;;;;;;5006054;28;20070;-46
2021/01/18 01:35:10;;;;;;;7.97;1.58;;;;;;;;;;5002882;28;20482;-49
2021/01/18 01:37:37;;;;;;;4.53;1.88;;;;;;;;;;4997035;28;20022;-43
2021/01/18 01:40:08;;;;;;;12.38;2.20;;;;;;;;;;4998649;28;20030;-45
2021/01/18 01:42:35;;;;;;;7.68;1.30;;;;;;;;;;4996118;28;20034;-42
2021/01/18 01:45:03;;;;;;;12.65;1.98;;;;;;;;;;5002927;28;20033;-43
2021/01/18 01:47:30;;;;;;;11.02;2.35;;;;;;;;;;5006447;28;20440;-44
2021/01/18 01:49:59;;;;;;;11.98;2.10;;;;;;;;;;5001838;28;20169;-42
2021/01/18 01:52:27;;;;;;;17.70;3.35;;;;;;;;;;5013542;28;20030;-45
2021/01/18 01:54:56;;;;;;;10.93;2.53;;;;;;;;;;5004877;28;20092;-46
2021/01/18 01:57:24;;;;;;;11.32;3.47;;;;;;;;;;5025810;28;20102;-47
2021/01/18 01:59:51;;;;;;;13.35;3.35;;;;;;;;;;5011323;28;20496;-45
2021/01/18 02:02:20;;;;;;;17.60;4.40;;;;;;;;;;5007264;28;20482;-42
2021/01/18 02:04:48;;;;;;;18.80;4.20;;;;;;;;;;5019574;28;20064;-43
2021/01/18 02:07:28;;;;;;;17.67;4.00;;;;;;;;;;5012833;28;20038;-43
2021/01/18 02:09:56;;;;;;;15.30;3.58;;;;;;;;;;5002488;28;20057;-46
2021/01/18 02:12:24;;;;;;;8.23;3.60;;;;;;;;;;5008594;28;20567;-45
2021/01/18 02:14:57;;;;;;;14.70;3.90;;;;;;;;;;5009131;28;20034;-42
2021/01/18 02:17:42;;;;;;;22.08;4.45;;;;;;;;;;5011905;28;20041;-45
2021/01/18 02:20:29;;;;;;;8.27;3.38;;;;;;;;;;5004178;28;20371;-42
2021/01/18 02:22:59;;;;;;;18.70;4.47;;;;;;;;;;4996833;28;20030;-45
2021/01/18 02:25:49;;;;;;;11.18;3.67;;;;;;;;;;5006268;28;20037;-42
2021/01/18 02:28:21;;;;;;;10.60;3.92;;;;;;;;;;5005121;28;20053;-45
2021/01/18 02:31:07;;;;;;;15.27;3.60;;;;;;;;;;5004146;28;20497;-46
2021/01/18 02:33:44;;;;;;;12.15;3.25;;;;;;;;;;5007494;28;20461;-43
2021/01/18 02:36:11;;;;;;;16.98;3.88;;;;;;;;;;5005471;28;20426;-42
2021/01/18 02:38:44;;;;;;;14.43;3.30;;;;;;;;;;5012243;28;20033;-44
2021/01/18 02:41:15;;;;;;;11.80;3.50;;;;;;;;;;5001456;28;20026;-42
2021/01/18 02:44:02;;;;;;;10.57;3.08;;;;;;;;;;5004487;28;20486;-43
2021/01/18 02:46:30;;;;;;;13.80;3.72;;;;;;;;;;5002234;28;20121;-45
2021/01/18 02:48:58;;;;;;;13.88;4.28;;;;;;;;;;5008085;28;20077;-44
2021/01/18 02:51:27;;;;;;;11.65;3.65;;;;;;;;;;5014063;28;20404;-43
2021/01/18 02:53:58;;;;;;;12.15;4.05;;;;;;;;;;5007384;28;20018;-44
2021/01/18 02:56:29;;;;;;;14.63;4.03;;;;;;;;;;4998936;28;20030;-43
2021/01/18 02:58:57;;;;;;;14.07;3.88;;;;;;;;;;4995494;28;20109;-45
2021/01/18 03:01:43;;;;;;;12.45;3.55;;;;;;;;;;4994723;28;20229;-44
2021/01/18 03:04:15;;;;;;;14.98;3.80;;;;;;;;;;4997456;28;20089;-45
2021/01/18 03:06:41;;;;;;;;;;;;;;;;;;4996109;28;20030;-45
2021/01/18 03:09:22;;;;;;;7.88;2.58;;;;;;;;;;4993772;28;19914;-43
2021/01/18 03:11:55;;;;;;;8.73;3.13;;;;;;;;;;4999932;28;20022;-42
2021/01/18 03:14:26;;;;;;;12.73;3.10;;;;;;;;;;4996409;28;20383;-43
2021/01/18 03:16:56;;;;;;;10.35;2.60;;;;;;;;;;4998915;28;20045;-45
2021/01/18 03:19:30;;;;;;;11.40;2.60;;;;;;;;;;5002425;28;20069;-50
2021/01/18 03:21:58;;;;;;;9.23;2.70;;;;;;;;;;5007266;28;20030;-43
2021/01/18 03:24:26;;;;;;;7.50;2.58;;;;;;;;;;5004625;28;20044;-43
2021/01/18 03:26:54;;;;;;;10.25;2.58;;;;;;;;;;4998481;28;20033;-43
2021/01/18 03:29:22;;;;;;;9.07;2.25;;;;;;;;;;4996276;28;20169;-43
2021/01/18 03:31:51;;;;;;;12.02;2.65;;;;;;;;;;4995212;28;20463;-43
2021/01/18 03:34:19;;;;;;;7.82;2.25;;;;;;;;;;4997552;28;20120;-43
2021/01/18 03:36:46;;;;;;;7.32;2.17;;;;;;;;;;4998366;28;20030;-44
2021/01/18 03:39:13;;;;;;;6.68;2.10;;;;;;;;;;4997023;28;20080;-43
2021/01/18 03:41:40;;;;;;;5.85;1.85;;;;;;;;;;4995500;28;20022;-43
2021/01/18 03:44:07;;;;;;;6.32;1.75;;;;;;;;;;4995072;28;20367;-45
2021/01/18 03:46:34;;;;;;;6.43;1.77;;;;;;;;;;4997991;28;20030;-45
2021/01/18 03:49:01;;;;;;;5.78;1.83;;;;;;;;;;5002666;28;20084;-43
2021/01/18 03:51:31;;;;;;;4.72;1.75;;;;;;;;;;4994360;28;20034;-46
2021/01/18 03:53:58;;;;;;;3.17;1.50;;;;;;;;;;4998184;28;20108;-45
2021/01/18 03:56:25;;;;;;;4.72;1.60;;;;;;;;;;5008705;28;20034;-46
2021/01/18 03:58:52;;;;;;;6.22;1.40;;;;;;;;;;5014682;28;20030;-44
2021/01/18 04:01:19;;;;;;;3.83;1.10;;;;;;;;;;5000597;28;20097;-45
2021/01/18 04:03:46;;;;;;;3.50;1.23;;;;;;;;;;4997306;28;20116;-44
2021/01/18 04:06:13;;;;;;;5.32;1.25;;;;;;;;;;4996855;28;20394;-43
2021/01/18 04:08:40;;;;;;;5.10;1.05;;;;;;;;;;5001061;28;20041;-43
2021/01/18 04:11:07;;;;;;;3.78;0.93;;;;;;;;;;5007339;28;20394;-44
2021/01/18 04:13:35;;;;;;;4.20;1.00;;;;;;;;;;5007158;28;20049;-42
2021/01/18 04:16:03;;;;;;;2.03;0.60;;;;;;;;;;5010792;28;20025;-41
2021/01/18 04:18:30;;;;;;;3.60;0.52;;;;;;;;;;5005040;28;20038;-41
2021/01/18 04:20:57;;;;;;;1.80;0.60;;;;;;;;;;5009852;28;20033;-40
2021/01/18 04:23:24;;;;;;;3.38;0.70;;;;;;;;;;5003275;28;20109;-42
2021/01/18 04:25:51;;;;;;;2.10;0.55;;;;;;;;;;5010070;28;20025;-42
2021/01/18 04:28:18;;;;;;;1.30;0.28;;;;;;;;;;5005172;28;20034;-42
2021/01/18 04:30:45;;;;;;;2.05;0.40;;;;;;;;;;5004796;28;20025;-39
2021/01/18 04:33:12;;;;;;;1.85;0.63;;;;;;;;;;5002378;28;20033;-43
2021/01/18 04:35:40;;;;;;;1.75;0.60;;;;;;;;;;4999883;28;20497;-40
2021/01/18 04:38:07;;;;;;;3.28;0.50;;;;;;;;;;5001458;28;20060;-43
2021/01/18 04:40:35;;;;;;;2.60;0.30;;;;;;;;;;5002201;28;20554;-46
2021/01/18 04:43:03;;;;;;;1.67;0.68;;;;;;;;;;5006473;28;20505;-47
2021/01/18 04:45:30;;;;;;;0.93;0.60;;;;;;;;;;5003572;28;20053;-41
2021/01/18 04:47:58;;;;;;;0.98;0.30;;;;;;;;;;5003449;28;20030;-43
2021/01/18 04:50:27;;;;;;;5.13;0.70;;;;;;;;;;5000178;28;20116;-44
2021/01/18 04:52:55;;;;;;;1.40;0.40;;;;;;;;;;5008748;28;20034;-44
2021/01/18 04:55:33;;;;;;;2.30;0.40;;;;;;;;;;4998707;28;20430;-42
2021/01/18 04:58:06;;;;;;;1.13;0.43;;;;;;;;;;5001488;28;20032;-38
2021/01/18 05:00:36;;;;;;;2.63;0.25;;;;;;;;;;5006820;28;20026;-42
2021/01/18 05:03:06;;;;;;;0.40;0.20;;;;;;;;;;5003768;28;20025;-45
2021/01/18 05:05:38;;;;;;;1.02;0.40;;;;;;;;;;5003190;28;20381;-40
2021/01/18 05:08:06;;;;;;;0.75;0.20;;;;;;;;;;5008272;28;20045;-44
2021/01/18 05:10:34;;;;;;;0.85;0.35;;;;;;;;;;5003569;28;20094;-46
2021/01/18 05:13:04;;;;;;;1.25;0.30;;;;;;;;;;5004084;28;20089;-44
2021/01/18 05:15:31;;;;;;;2.83;0.32;;;;;;;;;;5009998;28;20030;-46
2021/01/18 05:17:59;;;;;;;2.15;0.20;;;;;;;;;;5008803;28;20026;-43
2021/01/18 05:20:26;;;;;;;2.17;0.52;;;;;;;;;;5006851;28;20089;-46
2021/01/18 05:22:57;;;;;;;1.90;0.25;;;;;;;;;;5004870;28;20568;-45
2021/01/18 05:25:24;;;;;;;1.50;0.30;;;;;;;;;;5009292;28;20112;-50
2021/01/18 05:28:07;;;;;;;0.80;0.28;;;;;;;;;;5007698;28;20033;-49
2021/01/18 05:30:43;;;;;;;1.67;0.30;;;;;;;;;;5011843;28;20538;-47
2021/01/18 05:33:14;;;;;;;2.20;0.40;;;;;;;;;;5005545;28;20036;-47
2021/01/18 05:35:46;;;;;;;0.55;0.20;;;;;;;;;;5003737;28;20022;-49
2021/01/18 05:38:14;;;;;;;1.10;0.57;;;;;;;;;;5005527;28;20110;-47
2021/01/18 05:40:45;;;;;;;0.75;0.30;;;;;;;;;;5003486;28;20022;-46
2021/01/18 05:43:16;;;;;;;1.48;0.30;;;;;;;;;;5005596;28;20509;-47
2021/01/18 05:45:44;;;;;;;1.85;0.30;;;;;;;;;;5013752;28;20435;-48
2021/01/18 05:48:25;;;;;;;0.93;0.30;;;;;;;;;;4996359;28;20113;-44
2021/01/18 05:50:56;;;;;;;0.70;0.30;;;;;;;;;;4996155;28;20088;-45
2021/01/18 05:53:33;;;;;;;1.65;0.45;;;;;;;;;;4996502;28;20274;-51
2021/01/18 05:56:20;;;;;;;3.90;0.35;;;;;;;;;;4996502;28;20027;-49
2021/01/18 05:58:48;;;;;;;2.50;0.40;;;;;;;;;;4996387;28;20093;-46
2021/01/18 06:01:15;;;;;;;1.63;0.50;;;;;;;;;;4995836;28;20023;-45
2021/01/18 06:03:43;;;;;;;0.88;0.28;;;;;;;;;;5027507;28;20056;-50
2021/01/18 06:06:10;;;;;;;2.05;0.30;;;;;;;;;;5027889;28;20449;-47
2021/01/18 06:08:47;;;;;;;1.45;0.30;;;;;;;;;;4995912;28;20110;-49
2021/01/18 06:11:14;;;;;;;1.95;0.20;;;;;;;;;;4996095;28;20036;-51
2021/01/18 06:13:41;;;;;;;2.05;0.20;;;;;;;;;;4995939;28;20410;-47
2021/01/18 06:16:12;;;;;;;0.75;0.30;;;;;;;;;;5027600;28;20056;-48
2021/01/18 06:18:40;;;;;;;0.70;0.57;;;;;;;;;;4995911;28;20126;-47
2021/01/18 06:21:08;;;;;;;2.38;0.30;;;;;;;;;;4995838;28;20050;-50
2021/01/18 06:23:35;;;;;;;0.73;0.20;;;;;;;;;;4995948;28;20101;-51
2021/01/18 06:26:02;;;;;;;1.60;0.40;;;;;;;;;;4995849;28;20057;-46
2021/01/18 06:28:29;;;;;;;1.90;0.30;;;;;;;;;;4994825;28;20038;-52
2021/01/18 06:30:57;;;;;;;4.00;0.35;;;;;;;;;;4995748;28;20070;-49
2021/01/18 06:33:35;;;;;;;1.65;0.30;;;;;;;;;;4995600;28;20050;-48
2021/01/18 06:36:22;;;;;;;2.95;0.30;;;;;;;;;;4995571;28;20030;-46
2021/01/18 06:39:02;;;;;;;3.78;0.50;;;;;;;;;;4995506;28;20022;-49
2021/01/18 06:41:30;;;;;;;1.50;0.30;;;;;;;;;;4995459;28;20424;-48
2021/01/18 06:43:57;;;;;;;1.08;0.30;;;;;;;;;;4995609;28;20054;-47
2021/01/18 06:46:32;;;;;;;2.95;0.40;;;;;;;;;;4995634;28;20019;-50
2021/01/18 06:48:59;;;;;;;0.75;0.30;;;;;;;;;;4995235;28;20037;-47
2021/01/18 06:51:27;;;;;;;1.45;0.45;;;;;;;;;;4995301;28;20498;-51
2021/01/18 06:53:55;;;;;;;0.40;0.30;;;;;;;;;;4995279;28;20509;-47
2021/01/18 06:56:22;;;;;;;2.47;0.43;;;;;;;;;;4995297;28;20058;-48
2021/01/18 06:59:05;;;;;;;4.43;0.30;;;;;;;;;;4995133;28;20081;-47
2021/01/18 07:01:32;;;;;;;1.20;0.30;;;;;;;;;;4995129;28;20093;-49
2021/01/18 07:04:09;;;;;;;2.58;0.40;;;;;;;;;;4995192;28;20451;-51
2021/01/18 07:06:40;;;;;;;0.45;0.20;;;;;;;;;;4995057;28;20474;-48
2021/01/18 07:09:11;;;;;;;1.42;0.20;;;;;;;;;;4994795;28;20038;-49
2021/01/18 07:11:38;;;;;;;2.30;0.50;;;;;;;;;;4994989;28;20022;-48
2021/01/18 07:14:06;;;;;;;1.20;0.25;;;;;;;;;;4994940;28;20050;-48
2021/01/18 07:16:34;;;;;;;2.60;0.30;;;;;;;;;;5026370;28;20030;-48
2021/01/18 07:19:03;;;;;;;1.60;0.20;;;;;;;;;;4994758;28;20033;-47
2021/01/18 07:21:31;;;;;;;5.25;0.50;;;;;;;;;;4994813;28;20113;-49
2021/01/18 07:23:59;;;;;;;3.80;0.52;;;;;;;;;;4994828;28;20037;-47
2021/01/18 07:26:32;;;;;;;1.85;0.40;;;;;;;;;;4994746;28;20521;-46
2021/01/18 07:29:04;;;;;;;1.48;0.20;;;;;;;;;;4994508;28;20040;-48
2021/01/18 07:31:32;;;;;;;1.42;0.20;;;;;;;;;;4994691;28;20170;-46
2021/01/18 07:33:59;;;;;;;1.15;0.25;;;;;;;;;;4994368;28;20022;-46
2021/01/18 07:36:27;;;;;;;0.80;0.30;;;;;;;;;;4994520;28;20073;-47
2021/01/18 07:38:55;;;;;;;1.35;0.28;;;;;;;;;;4994556;28;20026;-47
2021/01/18 07:41:30;;;;;;;4.03;0.30;;;;;;;;;;4994481;28;20105;-47
2021/01/18 07:43:57;;;;;;;0.40;0.25;;;;;;;;;;4994371;28;20026;-47
2021/01/18 07:46:30;;;;;;;1.30;0.30;;;;;;;;;;4994288;28;20022;-47
2021/01/18 07:49:00;;;;;;;0.70;0.10;;;;;;;;;;4994242;28;20038;-47
2021/01/18 07:51:28;;;;;;;0.90;0.20;;;;;;;;;;4994355;28;20026;-47
2021/01/18 07:53:56;;;;;;;1.08;0.30;;;;;;;;;;4994131;28;20040;-44
2021/01/18 07:56:26;;;;;;;0.75;0.35;;;;;;;;;;4994073;28;20023;-45
2021/01/18 07:58:57;;;;;;;2.53;0.20;;;;;;;;;;4994107;28;20093;-48
2021/01/18 08:01:36;;;;;;;0.57;0.28;;;;;;;;;;4993963;28;20045;-49
2021/01/18 08:04:28;;;;;;;1.33;0.20;;;;;;;;;;4993992;28;20092;-48
2021/01/18 08:07:21;;;;;;;1.10;0.30;;;;;;;;;;4993802;28;20204;-48
2021/01/18 08:09:54;;;;;;;0.60;0.28;;;;;;;;;;4991624;28;20403;-49
2021/01/18 08:12:30;;;;;;;4.00;0.28;;;;;;;;;;4993780;28;20053;-51
2021/01/18 08:14:58;;;;;;;0.45;0.20;;;;;;;;;;5025192;28;20105;-47
2021/01/18 08:17:25;;;;;;;0.70;0.20;;;;;;;;;;4993863;28;20382;-47
2021/01/18 08:20:12;;;;;;;1.65;0.30;;;;;;;;;;4993830;28;20029;-51
2021/01/18 08:22:39;;;;;;;0.57;0.30;;;;;;;;;;4993821;28;20150;-50
2021/01/18 08:25:07;;;;;;;2.97;0.35;;;;;;;;;;4993569;28;20069;-49
2021/01/18 08:27:42;;;;;;;0.28;0.20;;;;;;;;;;4993570;28;20039;-48
2021/01/18 08:30:29;;;;;;;0.38;0.25;;;;;;;;;;4993700;28;20065;-47
2021/01/18 08:32:56;;;;;;;1.67;0.30;;;;;;;;;;4993601;28;20026;-49
2021/01/18 08:35:31;;;;;;;0.80;0.30;;;;;;;;;;4993506;28;20113;-46
2021/01/18 08:38:08;;;;;;;0.85;0.20;;;;;;;;;;4993474;28;20105;-48
2021/01/18 08:40:40;;;;;;;0.73;0.25;;;;;;;;;;4993499;28;20430;-51
2021/01/18 08:43:07;;;;;;;0.35;0.25;;;;;;;;;;4993457;28;20022;-50
2021/01/18 08:45:46;;;;;;;1.02;0.32;;;;;;;;;;5024981;28;20085;-47
2021/01/18 08:48:14;;;;;;;0.30;0.20;;;;;;;;;;4993283;28;20038;-46
2021/01/18 08:50:46;;;;;;;2.65;0.30;;;;;;;;;;4992953;28;20019;-47
2021/01/18 08:53:23;;;;;;;0.65;0.20;;;;;;;;;;4993314;28;20109;-51
2021/01/18 08:55:54;;;;;;;0.65;0.15;;;;;;;;;;4993330;28;20479;-50
2021/01/18 08:58:31;;;;;;;0.20;0.20;;;;;;;;;;4993346;28;20422;-49
2021/01/18 09:00:58;;;;;;;0.95;0.30;;;;;;;;;;4993215;28;20018;-50
2021/01/18 09:03:25;;;;;;;0.40;0.15;;;;;;;;;;4993294;28;20386;-50
2021/01/18 09:05:59;;;;;;;2.88;0.20;;;;;;;;;;4993338;28;20076;-49
2021/01/18 09:08:27;;;;;;;1.13;0.25;;;;;;;;;;4992869;28;20475;-48
2021/01/18 09:10:57;;;;;;;2.08;0.30;;;;;;;;;;4993107;28;20097;-46
2021/01/18 09:13:28;;;;;;;1.95;0.40;;;;;;;;;;4992834;28;20050;-44
2021/01/18 09:15:55;;;;;;;1.27;0.30;;;;;;;;;;4993393;28;20026;-49
2021/01/18 09:18:25;;;;;;;1.05;0.22;;;;;;;;;;4993111;28;20022;-49
2021/01/18 09:20:53;;;;;;;1.33;0.30;;;;;;;;;;4993008;28;20027;-50
2021/01/18 09:23:20;;;;;;;1.67;0.28;;;;;;;;;;5024551;28;20037;-47
2021/01/18 09:25:48;;;;;;;0.30;0.20;;;;;;;;;;4993078;28;20023;-51
2021/01/18 09:28:16;;;;;;;1.35;0.20;;;;;;;;;;4993014;28;20038;-49
2021/01/18 09:30:44;;;;;;;1.45;0.30;;;;;;;;;;5024677;28;20118;-48
2021/01/18 09:33:12;;;;;;;0.77;0.30;;;;;;;;;;5024536;28;20030;-52
2021/01/18 09:35:42;;;;;;;1.02;0.25;;;;;;;;;;4992871;28;20109;-47
2021/01/18 09:38:10;;;;;;;1.17;0.30;;;;;;;;;;4992851;28;20109;-50
2021/01/18 09:40:38;;;;;;;1.40;0.30;;;;;;;;;;4993086;28;20022;-47
2021/01/18 09:43:06;;;;;;;1.48;0.20;;;;;;;;;;4992862;28;20031;-48
2021/01/18 09:45:34;;;;;;;1.23;0.38;;;;;;;;;;4992873;28;20034;-51
2021/01/18 09:48:02;;;;;;;2.60;0.30;;;;;;;;;;4992842;28;20116;-48
2021/01/18 09:50:29;;;;;;;4.82;0.35;;;;;;;;;;4992697;28;20501;-45
2021/01/18 09:52:56;;;;;;;0.95;0.20;;;;;;;;;;5024349;28;20056;-47
2021/01/18 09:55:28;;;;;;;1.70;0.22;;;;;;;;;;4992892;28;20053;-46
2021/01/18 09:58:07;;;;;;;0.52;0.20;;;;;;;;;;4992781;28;20030;-49
2021/01/18 10:00:35;;;;;;;1.90;0.60;;;;;;;;;;4992765;28;20027;-48
2021/01/18 10:03:02;;;;;;;1.00;0.30;;;;;;;;;;4993087;28;20014;-46
2021/01/18 10:05:40;;;;;;;1.33;0.30;;;;;;;;;;4996347;28;20072;-47
2021/01/18 10:08:17;;;;;;;0.90;0.30;;;;;;;;;;4996111;28;20034;-49
2021/01/18 10:10:46;;;;;;;1.02;0.30;;;;;;;;;;4996043;28;20034;-46
2021/01/18 10:13:23;;;;;;;1.75;0.40;;;;;;;;;;4995894;28;20054;-48
2021/01/18 10:15:50;;;;;;;1.48;0.30;;;;;;;;;;4995983;28;20030;-47
2021/01/18 10:18:40;;;;;;;0.73;0.28;;;;;;;;;;4996106;28;20076;-46
2021/01/18 10:21:08;;;;;;;0.20;0.20;;;;;;;;;;4996039;28;20102;-51
2021/01/18 10:23:37;;;;;;;0.65;0.30;;;;;;;;;;4995842;28;20034;-45
2021/01/18 10:26:17;;;;;;;0.75;0.30;;;;;;;;;;4995629;28;20030;-47
2021/01/18 10:28:54;;;;;;;2.35;0.28;;;;;;;;;;4995581;28;20034;-50
2021/01/18 10:31:22;;;;;;;1.25;0.55;;;;;;;;;;4995721;28;20022;-51
2021/01/18 10:34:07;;;;;;;3.22;0.47;;;;;;;;;;4995777;28;20027;-52
2021/01/18 10:36:34;;;;;;;1.77;0.35;;;;;;;;;;5027230;28;20439;-47
2021/01/18 10:39:01;;;;;;;1.13;0.50;;;;;;;;;;4995545;28;20031;-47
2021/01/18 10:41:32;;;;;;;2.67;0.40;;;;;;;;;;4995551;28;20160;-51
2021/01/18 10:44:04;;;;;;;1.73;0.40;;;;;;;;;;4995741;28;20022;-48
2021/01/18 10:46:31;;;;;;;1.02;0.50;;;;;;;;;;4995493;28;20023;-47
2021/01/18 10:48:58;;;;;;;1.10;0.40;;;;;;;;;;4995433;28;20080;-48
2021/01/18 10:51:31;;;;;;;4.00;0.40;;;;;;;;;;4995419;28;20030;-47
2021/01/18 10:53:59;;;;;;;1.77;0.30;;;;;;;;;;4995543;28;20077;-45
2021/01/18 10:56:35;;;;;;;0.77;0.30;;;;;;;;;;4995231;28;20025;-45
2021/01/18 10:59:02;;;;;;;1.30;0.25;;;;;;;;;;4995205;28;20054;-46
2021/01/18 11:01:29;;;;;;;1.05;0.30;;;;;;;;;;4995307;28;20391;-45
2021/01/18 11:04:03;;;;;;;1.38;0.30;;;;;;;;;;4994907;28;20023;-46
2021/01/18 11:06:35;;;;;;;2.55;0.20;;;;;;;;;;4995147;28;20035;-46
2021/01/18 11:09:03;;;;;;;3.92;0.32;;;;;;;;;;4994836;28;20034;-46
2021/01/18 11:11:30;;;;;;;1.60;0.28;;;;;;;;;;4995202;28;20497;-45
2021/01/18 11:14:01;;;;;;;1.50;0.47;;;;;;;;;;5025756;28;20046;-46
2021/01/18 11:16:28;;;;;;;1.73;0.52;;;;;;;;;;4994714;28;20045;-47
2021/01/18 11:19:06;;;;;;;2.50;0.45;;;;;;;;;;4994985;28;20030;-45
2021/01/18 11:21:33;;;;;;;3.40;0.30;;;;;;;;;;4994978;28;20500;-46
2021/01/18 11:24:00;;;;;;;2.80;0.60;;;;;;;;;;4994734;28;20032;-46
2021/01/18 11:26:27;;;;;;;11.38;0.60;;;;;;;;;;4994654;28;20030;-51
2021/01/18 11:28:54;;;;;;;4.25;0.57;;;;;;;;;;4994632;28;20367;-48
2021/01/18 11:31:21;;;;;;;2.20;0.50;;;;;;;;;;4994495;28;20751;-48
2021/01/18 11:33:48;;;;;;;2.83;0.40;;;;;;;;;;4994602;28;20099;-51
2021/01/18 11:36:16;;;;;;;3.55;0.60;;;;;;;;;;4994655;28;20098;-47
2021/01/18 11:38:43;;;;;;;1.15;0.47;;;;;;;;;;4994406;28;20069;-49
2021/01/18 11:41:10;;;;;;;4.15;0.60;;;;;;;;;;4994411;28;20019;-46
2021/01/18 11:43:37;;;;;;;1.15;0.40;;;;;;;;;;4994469;28;20026;-48
2021/01/18 11:46:04;;;;;;;6.28;0.70;;;;;;;;;;4994264;28;20029;-48
2021/01/18 11:48:31;;;;;;;2.60;0.50;;;;;;;;;;4994149;28;20045;-50
2021/01/18 11:50:58;;;;;;;3.42;0.30;;;;;;;;;;5025822;28;20030;-47
2021/01/18 11:53:25;;;;;;;2.75;0.40;;;;;;;;;;4994174;28;20038;-49
2021/01/18 11:55:52;;;;;;;1.83;0.32;;;;;;;;;;4994099;28;20018;-47
2021/01/18 11:58:19;;;;;;;9.20;0.60;;;;;;;;;;4994167;28;20030;-52
2021/01/18 12:00:46;;;;;;;8.50;0.73;;;;;;;;;;5025522;28;20033;-51
2021/01/18 12:03:13;;;;;;;2.63;0.50;;;;;;;;;;4993931;28;20030;-50
2021/01/18 12:05:40;;;;;;;1.80;0.38;;;;;;;;;;4994142;28;20022;-48
2021/01/18 12:08:07;;;;;;;4.00;0.40;;;;;;;;;;4993859;28;20041;-50
2021/01/18 12:10:36;;;;;;;3.55;0.60;;;;;;;;;;4993939;28;20109;-51
2021/01/18 12:13:06;;;;;;;1.05;0.20;;;;;;;;;;4993632;28;20085;-48
2021/01/18 12:15:34;;;;;;;3.28;0.35;;;;;;;;;;4994032;28;20058;-50
2021/01/18 12:18:01;;;;;;;1.27;0.50;;;;;;;;;;4993761;28;20110;-48
2021/01/18 12:20:28;;;;;;;4.13;0.40;;;;;;;;;;4993734;28;20065;-48
2021/01/18 12:22:56;;;;;;;1.92;0.30;;;;;;;;;;4993909;28;20060;-49
2021/01/18 12:25:23;;;;;;;3.13;0.43;;;;;;;;;;5024662;28;20073;-47
2021/01/18 12:27:50;;;;;;;1.58;0.38;;;;;;;;;;4993136;28;20034;-51
2021/01/18 12:30:18;;;;;;;2.13;0.40;;;;;;;;;;4993833;28;20093;-47
2021/01/18 12:32:45;;;;;;;3.88;0.30;;;;;;;;;;4993471;28;20105;-49
2021/01/18 12:35:12;;;;;;;4.18;0.52;;;;;;;;;;4993515;28;20029;-47
2021/01/18 12:37:40;;;;;;;2.15;0.57;;;;;;;;;;4993530;28;20018;-47
2021/01/18 12:40:07;;;;;;;16.08;0.77;;;;;;;;;;4993454;28;20497;-47
2021/01/18 12:42:34;;;;;;;7.80;0.60;;;;;;;;;;4993335;28;20030;-46
2021/01/18 12:45:01;;;;;;;6.13;0.52;;;;;;;;;;4993456;28;20034;-48
2021/01/18 12:47:28;;;;;;;6.18;0.50;;;;;;;;;;4993294;28;20038;-50
2021/01/18 12:49:55;;;;;;;4.90;0.43;;;;;;;;;;4993349;28;20433;-49
2021/01/18 12:52:22;;;;;;;9.25;0.45;;;;;;;;;;5025062;28;20031;-50
2021/01/18 12:54:49;;;;;;;2.28;0.50;;;;;;;;;;4993269;28;20018;-47
2021/01/18 12:57:16;;;;;;;3.55;0.65;;;;;;;;;;4993098;28;20022;-51
2021/01/18 12:59:43;;;;;;;3.92;0.43;;;;;;;;;;4993496;28;20179;-46
2021/01/18 13:02:12;;;;;;;4.38;0.50;;;;;;;;;;4993229;28;20497;-45
2021/01/18 13:04:40;;;;;;;4.45;0.50;;;;;;;;;;4993180;28;20355;-46
2021/01/18 13:07:07;;;;;;;4.15;0.70;;;;;;;;;;5024798;28;20022;-50
2021/01/18 13:09:34;;;;;;;6.25;0.80;;;;;;;;;;4993572;28;20378;-50
2021/01/18 13:12:01;;;;;;;2.72;0.45;;;;;;;;;;4992861;28;20027;-48
2021/01/18 13:14:27;;;;;;;4.38;0.70;;;;;;;;;;4993213;28;20030;-46
2021/01/18 13:16:55;;;;;;;3.70;0.73;;;;;;;;;;4992985;28;20018;-44
2021/01/18 13:19:23;;;;;;;6.15;0.70;;;;;;;;;;4993641;28;20031;-47
2021/01/18 13:21:53;;;;;;;9.68;0.80;;;;;;;;;;5000843;28;20367;-46
2021/01/18 13:24:21;;;;;;;8.52;0.60;;;;;;;;;;5008516;28;20028;-50
2021/01/18 13:26:48;;;;;;;7.20;0.70;;;;;;;;;;5012302;28;20037;-48
2021/01/18 13:29:15;;;;;;;7.32;0.70;;;;;;;;;;5011724;28;20038;-45
2021/01/18 13:31:43;;;;;;;8.65;0.63;;;;;;;;;;5012285;28;20096;-46
2021/01/18 13:34:10;;;;;;;3.45;0.52;;;;;;;;;;5012348;28;20021;-47
2021/01/18 13:36:38;;;;;;;5.13;0.68;;;;;;;;;;5012039;28;20063;-49
2021/01/18 13:39:06;;;;;;;12.40;0.90;;;;;;;;;;5016143;28;20044;-47
2021/01/18 13:41:33;;;;;;;13.68;1.10;;;;;;;;;;5015644;28;20029;-48
2021/01/18 13:44:00;;;;;;;8.75;0.73;;;;;;;;;;5014700;28;20065;-43
2021/01/18 13:46:28;;;;;;;6.18;0.80;;;;;;;;;;5014025;28;20087;-44
2021/01/18 13:48:55;;;;;;;14.65;1.27;;;;;;;;;;5006636;28;20045;-47
2021/01/18 13:51:23;;;;;;;7.90;0.82;;;;;;;;;;5011302;28;20036;-42
2021/01/18 13:53:51;;;;;;;16.75;1.25;;;;;;;;;;5014152;28;20037;-47
2021/01/18 13:56:22;;;;;;;14.48;1.40;;;;;;;;;;5014079;28;20026;-44
2021/01/18 13:58:49;;;;;;;12.10;1.48;;;;;;;;;;5011617;28;20045;-51
2021/01/18 14:01:20;;;;;;;15.52;1.83;;;;;;;;;;5007675;28;20030;-50
2021/01/18 14:03:48;;;;;;;19.25;1.35;;;;;;;;;;5014156;28;20124;-47
2021/01/18 14:06:22;;;;;;;9.38;1.45;;;;;;;;;;5004726;28;20025;-47
2021/01/18 14:08:49;;;;;;;7.38;1.00;;;;;;;;;;5009990;28;20030;-44
2021/01/18 14:11:16;;;;;;;8.43;1.02;;;;;;;;;;5009555;28;20478;-46
2021/01/18 14:13:43;;;;;;;9.57;0.80;;;;;;;;;;5013826;28;20030;-44
2021/01/18 14:16:14;;;;;;;11.77;1.10;;;;;;;;;;5013262;28;20032;-44
2021/01/18 14:18:41;;;;;;;8.88;0.93;;;;;;;;;;5012628;28;20064;-43
2021/01/18 14:21:08;;;;;;;9.55;0.88;;;;;;;;;;5013298;28;20030;-41
2021/01/18 14:23:35;;;;;;;12.05;1.13;;;;;;;;;;5014125;28;20094;-46
2021/01/18 14:26:02;;;;;;;10.32;1.25;;;;;;;;;;5013275;28;20021;-41
2021/01/18 14:28:29;;;;;;;11.05;1.45;;;;;;;;;;5013018;28;20457;-47
2021/01/18 14:30:56;;;;;;;14.90;1.20;;;;;;;;;;5014562;28;20084;-42
2021/01/18 14:33:23;;;;;;;14.48;1.42;;;;;;;;;;5013286;28;20490;-44
2021/01/18 14:35:50;;;;;;;18.17;1.58;;;;;;;;;;5014325;28;20532;-45
2021/01/18 14:38:17;;;;;;;13.52;1.33;;;;;;;;;;5014123;28;20026;-45
2021/01/18 14:40:44;;;;;;;8.98;1.33;;;;;;;;;;5013557;28;20046;-48
2021/01/18 14:43:11;;;;;;;12.75;1.30;;;;;;;;;;5003354;28;20077;-48
2021/01/18 14:45:38;;;;;;;16.88;1.60;;;;;;;;;;4992347;28;20049;-45
2021/01/18 14:48:06;;;;;;;15.10;1.45;;;;;;;;;;4994337;28;20121;-43
2021/01/18 14:50:34;;;;;;;21.58;1.52;;;;;;;;;;5010165;28;20393;-49
2021/01/18 14:53:01;;;;;;;12.77;1.60;;;;;;;;;;5012401;28;20034;-48
2021/01/18 14:55:29;;;;;;;16.58;1.77;;;;;;;;;;5012662;28;20018;-48